createdAt,value
2022-12-19T00:01:35.738Z,64.03
2022-12-19T00:04:08.201Z,61.80
2022-12-19T00:06:37.067Z,55.17
2022-12-19T00:09:03.659Z,37.45
2022-12-19T00:11:30.313Z,41.47
2022-12-19T00:13:57.295Z,48.75
2022-12-19T00:16:27.120Z,51.17
2022-12-19T00:18:55.690Z,56.00
2022-12-19T00:21:24.863Z,63.88
2022-12-19T00:23:52.562Z,60.40
2022-12-19T00:26:24.505Z,53.30
2022-12-19T00:28:54.117Z,60.75
2022-12-19T00:31:22.536Z,60.22
2022-12-19T00:33:49.706Z,59.78
2022-12-19T00:36:22.819Z,59.90
2022-12-19T00:38:51.499Z,56.35
2022-12-19T00:41:21.208Z,58.97
2022-12-19T00:43:57.781Z,57.72
2022-12-19T00:46:25.228Z,62.13
2022-12-19T00:48:51.716Z,62.78
2022-12-19T00:51:23.993Z,68.85
2022-12-19T00:53:51.338Z,56.05
2022-12-19T00:56:21.519Z,60.53
2022-12-19T00:58:48.539Z,66.65
2022-12-19T01:01:21.423Z,61.78
2022-12-19T01:04:18.682Z,62.55
2022-12-19T01:06:34.835Z,48.50
2022-12-19T01:09:01.409Z,65.45
2022-12-19T01:11:46.547Z,66.72
2022-12-19T01:14:20.818Z,52.13
2022-12-19T01:16:49.635Z,42.95
2022-12-19T01:19:16.189Z,62.75
2022-12-19T01:21:42.765Z,68.15
2022-12-19T01:24:09.614Z,62.83
2022-12-19T01:26:36.101Z,63.13
2022-12-19T01:29:02.563Z,59.05
2022-12-19T01:31:29.014Z,56.45
2022-12-19T01:33:55.529Z,58.45
2022-12-19T01:36:21.950Z,63.88
2022-12-19T01:38:48.368Z,68.07
2022-12-19T01:41:14.856Z,58.63
2022-12-19T01:44:06.135Z,63.95
2022-12-19T01:46:42.177Z,65.20
2022-12-19T01:49:26.244Z,57.65
2022-12-19T01:51:55.243Z,62.70
2022-12-19T01:54:27.003Z,51.40
2022-12-19T01:56:57.329Z,61.45
2022-12-19T01:59:37.848Z,62.58
2022-12-19T02:02:12.997Z,65.35
2022-12-19T02:04:41.700Z,63.50
2022-12-19T02:07:15.574Z,63.05
2022-12-19T02:09:45.613Z,48.28
2022-12-19T02:12:12.955Z,62.28
2022-12-19T02:14:40.313Z,60.95
2022-12-19T02:17:21.274Z,62.42
2022-12-19T02:20:05.016Z,55.63
2022-12-19T02:22:43.346Z,55.67
2022-12-19T02:25:35.345Z,63.60
2022-12-19T02:28:26.294Z,58.53
2022-12-19T02:31:02.180Z,58.63
2022-12-19T02:33:40.772Z,63.85
2022-12-19T02:36:15.171Z,56.55
2022-12-19T02:38:46.130Z,56.60
2022-12-19T02:41:43.510Z,55.33
2022-12-19T02:44:21.852Z,55.50
2022-12-19T02:46:50.449Z,54.70
2022-12-19T02:49:22.415Z,62.10
2022-12-19T02:51:57.748Z,47.92
2022-12-19T02:54:25.120Z,57.10
2022-12-19T02:56:59.255Z,59.67
2022-12-19T02:59:35.635Z,50.55
2022-12-19T03:02:16.968Z,57.95
2022-12-19T03:05:05.349Z,59.35
2022-12-19T03:07:55.589Z,53.72
2022-12-19T03:10:42.986Z,54.55
2022-12-19T03:13:18.834Z,51.38
2022-12-19T03:15:46.100Z,57.55
2022-12-19T03:18:13.205Z,58.60
2022-12-19T03:20:44.946Z,59.78
2022-12-19T03:23:12.887Z,60.28
2022-12-19T03:25:43.183Z,55.40
2022-12-19T03:28:20.595Z,58.90
2022-12-19T03:30:47.752Z,54.47
2022-12-19T03:33:18.856Z,54.45
2022-12-19T03:35:47.255Z,47.03
2022-12-19T03:38:15.340Z,54.65
2022-12-19T03:40:45.913Z,59.47
2022-12-19T03:43:16.371Z,64.47
2022-12-19T03:46:04.960Z,56.53
2022-12-19T03:48:34.657Z,55.60
2022-12-19T03:51:05.722Z,64.13
2022-12-19T03:53:40.849Z,66.65
2022-12-19T03:56:19.813Z,58.75
2022-12-19T03:58:52.444Z,66.85
2022-12-19T04:01:19.433Z,70.57
2022-12-19T04:03:49.232Z,71.43
2022-12-19T04:06:17.147Z,71.70
2022-12-19T04:08:44.455Z,63.38
2022-12-19T04:11:16.475Z,77.57
2022-12-19T04:13:53.461Z,62.08
2022-12-19T04:16:32.829Z,66.68
2022-12-19T04:19:05.537Z,70.65
2022-12-19T04:21:39.386Z,74.18
2022-12-19T04:24:16.381Z,65.43
2022-12-19T04:26:47.279Z,67.60
2022-12-19T04:29:15.189Z,77.95
2022-12-19T04:31:42.886Z,70.32
2022-12-19T04:34:09.356Z,69.75
2022-12-19T04:36:36.026Z,70.40
2022-12-19T04:39:02.538Z,67.60
2022-12-19T04:41:29.051Z,54.10
2022-12-19T04:43:55.504Z,71.40
2022-12-19T04:46:22.054Z,60.83
2022-12-19T04:48:48.524Z,68.93
2022-12-19T04:51:16.150Z,68.60
2022-12-19T04:53:42.645Z,69.18
2022-12-19T04:56:09.707Z,56.50
2022-12-19T04:58:36.175Z,74.18
2022-12-19T05:01:08.039Z,58.83
2022-12-19T05:03:35.883Z,75.10
2022-12-19T05:06:08.071Z,70.03
2022-12-19T05:08:35.444Z,73.63
2022-12-19T05:11:02.860Z,75.80
2022-12-19T05:13:30.229Z,56.03
2022-12-19T05:16:00.962Z,72.75
2022-12-19T05:18:28.032Z,70.78
2022-12-19T05:20:54.625Z,77.75
2022-12-19T05:23:21.578Z,62.03
2022-12-19T05:25:48.437Z,80.53
2022-12-19T05:28:15.685Z,73.20
2022-12-19T05:30:43.962Z,64.50
2022-12-19T05:33:13.120Z,63.05
2022-12-19T05:35:40.059Z,74.30
2022-12-19T05:38:06.777Z,70.32
2022-12-19T05:40:33.359Z,63.65
2022-12-19T05:42:59.832Z,70.97
2022-12-19T05:45:26.312Z,68.68
2022-12-19T05:47:52.733Z,67.60
2022-12-19T05:50:19.232Z,78.90
2022-12-19T05:52:45.736Z,77.70
2022-12-19T05:55:12.692Z,75.15
2022-12-19T05:57:39.145Z,64.10
2022-12-19T06:00:06.313Z,77.90
2022-12-19T06:02:33.670Z,77.47
2022-12-19T06:05:00.310Z,74.82
2022-12-19T06:07:26.799Z,79.32
2022-12-19T06:09:53.250Z,69.28
2022-12-19T06:12:19.709Z,73.65
2022-12-19T06:14:46.163Z,70.38
2022-12-19T06:17:12.646Z,73.55
2022-12-19T06:19:39.144Z,64.55
2022-12-19T06:22:05.727Z,65.82
2022-12-19T06:24:32.708Z,74.13
2022-12-19T06:27:02.103Z,70.13
2022-12-19T06:29:28.596Z,57.92
2022-12-19T06:31:55.290Z,64.30
2022-12-19T06:34:55.167Z,69.82
2022-12-19T06:37:08.903Z,53.17
2022-12-19T06:39:35.436Z,73.63
2022-12-19T06:42:20.557Z,47.42
2022-12-19T06:44:46.984Z,61.30
2022-12-19T06:47:13.515Z,59.83
2022-12-19T06:49:40.065Z,66.38
2022-12-19T06:52:09.259Z,67.20
2022-12-19T06:54:35.870Z,63.30
2022-12-19T06:57:02.650Z,73.25
2022-12-19T06:59:29.105Z,79.50
2022-12-19T07:02:27.267Z,70.05
2022-12-19T07:05:03.882Z,70.03
2022-12-19T07:07:30.738Z,71.05
2022-12-19T07:09:57.230Z,64.45
2022-12-19T07:12:23.702Z,62.67
2022-12-19T07:14:53.379Z,57.10
2022-12-19T07:17:21.590Z,61.90
2022-12-19T07:19:49.531Z,53.30
2022-12-19T07:22:16.199Z,57.47
2022-12-19T07:24:42.642Z,57.47
2022-12-19T07:27:09.296Z,57.08
2022-12-19T07:29:35.748Z,63.42
2022-12-19T07:32:02.311Z,78.07
2022-12-19T07:34:30.040Z,65.22
2022-12-19T07:36:56.861Z,61.60
2022-12-19T07:39:23.453Z,63.25
2022-12-19T07:41:50.036Z,56.88
2022-12-19T07:44:16.546Z,59.88
2022-12-19T07:46:43.353Z,66.25
2022-12-19T07:49:09.833Z,64.60
2022-12-19T07:51:36.370Z,58.13
2022-12-19T07:54:03.366Z,57.67
2022-12-19T07:56:29.933Z,58.30
2022-12-19T07:58:56.689Z,59.35
2022-12-19T08:01:23.208Z,54.63
2022-12-19T08:03:49.807Z,68.47
2022-12-19T08:06:16.358Z,54.58
2022-12-19T08:08:42.852Z,59.38
2022-12-19T08:11:16.858Z,55.53
2022-12-19T08:13:46.653Z,61.75
2022-12-19T08:16:13.758Z,51.22
2022-12-19T08:18:40.595Z,60.92
2022-12-19T08:21:08.404Z,43.53
2022-12-19T08:23:35.050Z,44.33
2022-12-19T08:26:03.891Z,47.05
2022-12-19T08:28:31.968Z,48.80
2022-12-19T08:31:05.321Z,48.58
2022-12-19T08:33:31.881Z,48.42
2022-12-19T08:35:59.237Z,51.70
2022-12-19T08:38:25.696Z,52.45
2022-12-19T08:40:54.357Z,52.38
2022-12-19T08:43:21.440Z,57.20
2022-12-19T08:45:50.005Z,47.83
2022-12-19T08:48:17.366Z,47.08
2022-12-19T08:50:55.223Z,46.17
2022-12-19T08:53:26.296Z,167.35
2022-12-19T08:56:01.794Z,60.10
2022-12-19T08:58:29.844Z,49.63
2022-12-19T09:01:05.940Z,50.65
2022-12-19T09:03:42.726Z,48.47
2022-12-19T09:06:20.125Z,52.35
2022-12-19T09:08:46.911Z,49.00
2022-12-19T09:11:18.383Z,55.22
2022-12-19T09:13:46.553Z,54.75
2022-12-19T09:16:14.224Z,36.28
2022-12-19T09:18:46.605Z,33.28
2022-12-19T09:21:15.411Z,42.60
2022-12-19T09:23:43.263Z,43.08
2022-12-19T09:26:13.372Z,37.72
2022-12-19T09:28:41.453Z,53.08
2022-12-19T09:31:11.943Z,52.00
2022-12-19T09:33:43.408Z,51.55
2022-12-19T09:36:19.690Z,58.08
2022-12-19T09:38:47.066Z,49.92
2022-12-19T09:41:13.523Z,51.75
2022-12-19T09:43:58.317Z,203.50
2022-12-19T09:46:35.815Z,53.22
2022-12-19T09:49:03.148Z,51.42
2022-12-19T09:51:36.678Z,55.63
2022-12-19T09:54:15.965Z,50.72
2022-12-19T09:56:45.510Z,53.20
2022-12-19T09:59:39.943Z,54.70
2022-12-19T10:02:23.082Z,57.97
2022-12-19T10:04:56.661Z,55.88
2022-12-19T10:08:05.028Z,59.72
2022-12-19T10:12:39.582Z,52.08
2022-12-19T10:13:51.474Z,54.85
2022-12-19T10:16:56.312Z,49.45
2022-12-19T10:19:46.328Z,46.35
2022-12-19T10:22:28.133Z,49.63
2022-12-19T10:25:12.069Z,62.70
2022-12-19T10:27:59.889Z,56.65
2022-12-19T10:30:31.486Z,64.70
2022-12-19T10:33:38.735Z,49.10
2022-12-19T10:36:10.796Z,46.80
2022-12-19T10:39:03.979Z,51.30
2022-12-19T10:41:32.353Z,43.20
2022-12-19T10:44:10.130Z,51.42
2022-12-19T10:46:49.366Z,46.30
2022-12-19T10:49:27.062Z,48.92
2022-12-19T10:52:02.533Z,47.47
2022-12-19T10:54:38.014Z,49.20
2022-12-19T10:57:26.963Z,42.20
2022-12-19T11:00:09.696Z,45.88
2022-12-19T11:02:39.041Z,49.83
2022-12-19T11:05:39.821Z,45.47
2022-12-19T11:08:06.238Z,48.45
2022-12-19T11:12:33.593Z,46.42
2022-12-19T11:19:34.858Z,48.90
2022-12-19T11:21:37.127Z,41.75
2022-12-19T11:29:31.090Z,57.97
2022-12-19T11:29:54.186Z,48.38
2022-12-19T11:30:07.050Z,50.63
2022-12-19T11:30:46.773Z,44.45
2022-12-19T11:34:21.225Z,48.97
2022-12-19T11:37:11.829Z,42.75
2022-12-19T11:39:50.142Z,49.22
2022-12-19T11:42:37.750Z,47.10
2022-12-19T11:45:41.241Z,45.10
2022-12-19T11:48:19.925Z,39.15
2022-12-19T11:51:14.293Z,41.72
2022-12-19T11:54:07.615Z,48.03
2022-12-19T11:56:34.868Z,45.42
2022-12-19T11:59:11.666Z,44.15
2022-12-19T12:02:07.102Z,47.15
2022-12-19T12:05:11.249Z,40.28
2022-12-19T12:08:42.799Z,42.67
2022-12-19T12:13:32.040Z,42.63
2022-12-19T12:21:38.693Z,40.30
2022-12-19T12:27:56.580Z,39.47
2022-12-19T12:31:07.269Z,38.03
2022-12-19T12:31:42.240Z,40.85
2022-12-19T12:31:58.267Z,40.17
2022-12-19T12:32:04.671Z,39.35
2022-12-19T12:35:50.036Z,40.05
2022-12-19T12:38:27.543Z,40.28
2022-12-19T12:41:48.116Z,39.92
2022-12-19T12:44:15.287Z,39.63
2022-12-19T12:46:52.035Z,44.92
2022-12-19T12:49:32.825Z,36.28
2022-12-19T12:52:01.609Z,41.50
2022-12-19T12:54:34.236Z,39.20
2022-12-19T12:57:01.714Z,41.65
2022-12-19T12:59:30.255Z,39.72
2022-12-19T13:02:06.580Z,41.08
2022-12-19T13:04:42.092Z,42.00
2022-12-19T13:07:25.073Z,36.55
2022-12-19T13:10:13.335Z,36.88
2022-12-19T13:13:01.608Z,37.25
2022-12-19T13:15:28.085Z,38.08
2022-12-19T13:17:54.480Z,32.95
2022-12-19T13:20:23.888Z,36.33
2022-12-19T13:23:00.262Z,37.03
2022-12-19T13:25:26.758Z,37.40
2022-12-19T13:28:22.275Z,44.42
2022-12-19T13:31:19.337Z,37.03
2022-12-19T13:33:56.230Z,37.60
2022-12-19T13:39:58.423Z,39.03
2022-12-19T13:40:11.005Z,36.70
2022-12-19T13:45:40.679Z,36.38
2022-12-19T13:48:15.421Z,30.52
2022-12-19T13:50:43.097Z,37.20
2022-12-19T13:53:26.168Z,37.25
2022-12-19T13:56:00.071Z,38.25
2022-12-19T13:58:30.667Z,38.78
2022-12-19T14:01:02.852Z,37.40
2022-12-19T14:03:40.766Z,35.33
2022-12-19T14:06:21.322Z,41.55
2022-12-19T14:09:37.452Z,37.13
2022-12-19T14:13:41.380Z,30.60
2022-12-19T14:14:46.823Z,31.05
2022-12-19T14:17:14.577Z,23.63
2022-12-19T14:19:47.294Z,23.90
2022-12-19T14:22:26.058Z,30.92
2022-12-19T14:25:45.114Z,25.88
2022-12-19T14:28:17.606Z,32.75
2022-12-19T14:30:54.612Z,27.48
2022-12-19T14:33:43.818Z,29.48
2022-12-19T14:36:25.634Z,31.90
2022-12-19T14:39:25.330Z,25.98
2022-12-19T14:42:03.893Z,32.90
2022-12-19T14:53:51.781Z,26.58
2022-12-19T14:54:23.411Z,23.02
2022-12-19T14:54:55.167Z,20.25
2022-12-19T14:59:02.509Z,21.77
2022-12-19T15:01:33.925Z,23.65
2022-12-19T15:04:47.329Z,23.13
2022-12-19T15:07:07.121Z,20.50
2022-12-19T15:11:07.709Z,20.13
2022-12-19T15:14:52.491Z,19.48
2022-12-19T15:16:24.826Z,23.02
2022-12-19T15:18:55.233Z,21.33
2022-12-19T15:21:21.761Z,19.42
2022-12-19T15:23:48.324Z,19.50
2022-12-19T15:26:17.446Z,17.20
2022-12-19T15:28:52.061Z,15.93
2022-12-19T15:31:26.254Z,19.55
2022-12-19T15:34:23.745Z,21.85
2022-12-19T15:36:39.395Z,24.55
2022-12-19T15:39:05.890Z,22.23
2022-12-19T15:41:32.547Z,20.45
2022-12-19T15:44:04.008Z,20.13
2022-12-19T15:46:32.310Z,20.02
2022-12-19T15:48:58.884Z,15.40
2022-12-19T15:51:26.478Z,18.02
2022-12-19T15:53:53.542Z,23.95
2022-12-19T15:56:28.775Z,19.67
2022-12-19T15:58:57.336Z,16.52
2022-12-19T16:01:24.562Z,15.35
2022-12-19T16:03:51.380Z,23.33
2022-12-19T16:06:18.562Z,16.13
2022-12-19T16:08:45.126Z,16.40
2022-12-19T16:11:21.447Z,18.67
2022-12-19T16:13:55.618Z,15.60
2022-12-19T16:16:22.900Z,10.80
2022-12-19T16:18:49.516Z,16.70
2022-12-19T16:21:27.370Z,17.05
2022-12-19T16:23:57.957Z,16.83
2022-12-19T16:26:34.588Z,19.60
2022-12-19T16:29:02.112Z,21.67
2022-12-19T16:31:28.916Z,17.10
2022-12-19T16:33:55.582Z,20.35
2022-12-19T16:36:22.324Z,21.05
2022-12-19T16:38:48.895Z,18.33
2022-12-19T16:41:19.383Z,17.77
2022-12-19T16:43:46.036Z,18.60
2022-12-19T16:46:19.089Z,17.33
2022-12-19T16:48:45.832Z,19.65
2022-12-19T16:51:21.144Z,18.33
2022-12-19T16:53:50.593Z,19.30
2022-12-19T16:56:55.538Z,18.63
2022-12-19T16:59:34.131Z,18.60
2022-12-19T17:02:00.914Z,16.52
2022-12-19T17:04:29.068Z,13.35
2022-12-19T17:06:56.364Z,17.50
2022-12-19T17:09:24.597Z,15.23
2022-12-19T17:11:55.798Z,15.27
2022-12-19T17:14:27.102Z,17.52
2022-12-19T17:16:55.379Z,18.75
2022-12-19T17:19:33.744Z,17.02
2022-12-19T17:22:00.403Z,14.70
2022-12-19T17:24:27.219Z,14.30
2022-12-19T17:26:53.712Z,17.35
2022-12-19T17:29:20.199Z,15.40
2022-12-19T17:31:46.745Z,12.52
2022-12-19T17:34:21.868Z,15.60
2022-12-19T17:36:48.347Z,14.60
2022-12-19T17:39:20.627Z,12.52
2022-12-19T17:41:48.438Z,11.20
2022-12-19T17:44:15.341Z,21.20
2022-12-19T17:46:42.421Z,25.17
2022-12-19T17:49:18.228Z,22.23
2022-12-19T17:51:50.196Z,16.00
2022-12-19T17:54:16.740Z,12.63
2022-12-19T17:56:43.188Z,11.18
2022-12-19T17:59:09.732Z,22.20
2022-12-19T18:01:38.419Z,14.18
2022-12-19T18:04:05.059Z,14.63
2022-12-19T18:06:31.591Z,16.98
2022-12-19T18:08:58.141Z,17.45
2022-12-19T18:11:26.006Z,40.30
2022-12-19T18:13:53.490Z,23.20
2022-12-19T18:16:24.877Z,15.10
2022-12-19T18:18:51.635Z,16.05
2022-12-19T18:21:20.591Z,13.07
2022-12-19T18:23:49.009Z,16.30
2022-12-19T18:26:15.546Z,15.27
2022-12-19T18:28:42.426Z,22.65
2022-12-19T18:31:20.773Z,25.00
2022-12-19T18:33:49.949Z,15.85
2022-12-19T18:36:25.504Z,28.00
2022-12-19T18:38:52.959Z,17.27
2022-12-19T18:41:20.481Z,18.70
2022-12-19T18:43:47.126Z,18.42
2022-12-19T18:46:16.345Z,23.27
2022-12-19T18:48:44.504Z,24.48
2022-12-19T18:51:16.566Z,21.15
2022-12-19T18:53:44.347Z,23.65
2022-12-19T18:56:11.309Z,16.65
2022-12-19T18:58:37.999Z,21.00
2022-12-19T19:01:07.064Z,23.38
2022-12-19T19:03:39.302Z,23.00
2022-12-19T19:06:14.156Z,19.23
2022-12-19T19:08:40.692Z,21.90
2022-12-19T19:11:07.431Z,16.25
2022-12-19T19:13:34.027Z,18.50
2022-12-19T19:16:03.774Z,24.88
2022-12-19T19:18:35.259Z,19.95
2022-12-19T19:21:02.375Z,19.95
2022-12-19T19:23:39.127Z,14.57
2022-12-19T19:26:06.221Z,17.50
2022-12-19T19:28:32.786Z,20.40
2022-12-19T19:31:00.593Z,19.27
2022-12-19T19:33:33.785Z,13.65
2022-12-19T19:36:12.142Z,14.68
2022-12-19T19:38:42.562Z,15.57
2022-12-19T19:41:09.150Z,12.50
2022-12-19T19:43:35.804Z,12.00
2022-12-19T19:46:02.969Z,20.27
2022-12-19T19:48:30.374Z,18.25
2022-12-19T19:50:57.467Z,22.27
2022-12-19T19:53:24.011Z,19.05
2022-12-19T19:55:58.089Z,16.48
2022-12-19T19:58:24.640Z,8.35
2022-12-19T20:00:51.274Z,11.10
2022-12-19T20:03:22.514Z,7.30
2022-12-19T20:05:50.138Z,10.20
2022-12-19T20:08:16.722Z,5.82
2022-12-19T20:10:43.146Z,5.93
2022-12-19T20:13:11.127Z,7.22
2022-12-19T20:15:39.163Z,6.72
2022-12-19T20:18:08.560Z,7.32
2022-12-19T20:20:35.159Z,5.28
2022-12-19T20:23:02.507Z,9.88
2022-12-19T20:25:28.941Z,7.50
2022-12-19T20:27:55.484Z,8.25
2022-12-19T20:30:21.972Z,6.35
2022-12-19T20:32:48.458Z,5.60
2022-12-19T20:35:16.098Z,5.45
2022-12-19T20:37:42.962Z,8.27
2022-12-19T20:40:10.093Z,6.75
2022-12-19T20:42:36.579Z,7.50
2022-12-19T20:45:03.653Z,5.80
2022-12-19T20:47:30.426Z,9.38
2022-12-19T20:49:56.905Z,7.07
2022-12-19T20:52:23.512Z,4.55
2022-12-19T20:54:50.441Z,9.80
2022-12-19T20:57:17.083Z,4.43
2022-12-19T20:59:43.811Z,5.60
2022-12-19T21:02:11.451Z,7.45
2022-12-19T21:04:38.184Z,6.28
2022-12-19T21:07:04.805Z,4.13
2022-12-19T21:09:31.386Z,5.00
2022-12-19T21:11:57.908Z,3.63
2022-12-19T21:14:24.446Z,5.50
2022-12-19T21:16:51.049Z,4.32
2022-12-19T21:19:17.576Z,4.93
2022-12-19T21:21:44.614Z,5.30
2022-12-19T21:24:11.189Z,5.88
2022-12-19T21:26:37.814Z,4.28
2022-12-19T21:29:05.032Z,4.53
2022-12-19T21:31:31.709Z,3.97
2022-12-19T21:34:01.472Z,3.35
2022-12-19T21:36:29.969Z,3.90
2022-12-19T21:38:59.313Z,5.57
2022-12-19T21:41:26.409Z,4.75
2022-12-19T21:43:54.993Z,3.55
2022-12-19T21:46:27.019Z,5.32
2022-12-19T21:48:55.287Z,3.38
2022-12-19T21:51:25.225Z,5.80
2022-12-19T21:53:56.583Z,8.40
2022-12-19T21:56:31.989Z,4.18
2022-12-19T21:59:03.866Z,5.05
2022-12-19T22:01:31.230Z,5.38
2022-12-19T22:04:00.670Z,9.63
2022-12-19T22:06:31.773Z,4.80
2022-12-19T22:08:59.326Z,4.47
2022-12-19T22:11:26.358Z,5.78
2022-12-19T22:13:53.402Z,5.88
2022-12-19T22:16:20.264Z,8.82
2022-12-19T22:18:46.812Z,6.15
2022-12-19T22:21:15.041Z,7.55
2022-12-19T22:23:42.295Z,5.00
2022-12-19T22:26:10.944Z,6.18
2022-12-19T22:28:39.613Z,3.72
2022-12-19T22:31:26.198Z,5.80
2022-12-19T22:33:56.300Z,5.72
2022-12-19T22:36:28.425Z,3.83
2022-12-19T22:38:57.004Z,3.25
2022-12-19T22:41:24.347Z,7.65
2022-12-19T22:43:51.746Z,5.45
2022-12-19T22:46:21.074Z,6.35
2022-12-19T22:48:50.141Z,6.75
2022-12-19T22:51:19.854Z,4.18
2022-12-19T22:53:47.265Z,5.60
2022-12-19T22:56:16.696Z,3.88
2022-12-19T22:58:45.083Z,3.33
2022-12-19T23:01:26.571Z,3.13
2022-12-19T23:03:55.682Z,3.10
2022-12-19T23:06:24.055Z,4.90
2022-12-19T23:08:50.531Z,3.50
2022-12-19T23:11:23.439Z,4.13
2022-12-19T23:13:50.341Z,3.15
2022-12-19T23:16:17.569Z,6.53
2022-12-19T23:18:44.663Z,4.10
2022-12-19T23:21:20.636Z,5.40
2022-12-19T23:23:49.502Z,6.20
2022-12-19T23:26:18.331Z,4.10
2022-12-19T23:28:49.616Z,3.58
2022-12-19T23:31:16.230Z,3.72
2022-12-19T23:33:42.762Z,5.82
2022-12-19T23:36:10.637Z,2.75
2022-12-19T23:38:37.175Z,3.78
2022-12-19T23:41:06.913Z,2.55
2022-12-19T23:43:35.495Z,6.55
2022-12-19T23:46:07.001Z,4.57
2022-12-19T23:48:33.904Z,5.45
2022-12-19T23:51:02.574Z,5.45
2022-12-19T23:53:31.020Z,4.40
2022-12-19T23:55:57.792Z,3.65
2022-12-19T23:58:25.006Z,3.83
